Time;durP1;ratioP1;P1;durP2;ratioP2;P2;SDS_P1;SDS_P2;PMS_P1;PMS_P2;Temp;Humidity;BMP_temperature;BMP_pressure;BME280_temperature;BME280_humidity;BME280_pressure;Samples;Min_cycle;Max_cycle;Signal;HPM_P1;HPM_P2
2024/04/09 00:00:03;;;;;;;;;;;;;;;31.66;21.67;97904.81;5481956;26;19935;-82
2024/04/09 00:02:29;;;;;;;;;;;;;;;31.57;22.22;97908.56;5479999;26;19928;-82
2024/04/09 00:04:55;;;;;;;;;;;;;;;31.50;21.88;97905.31;5486133;26;20062;-82
2024/04/09 00:07:21;;;;;;;;;;;;;;;31.61;21.54;97900.63;5495084;26;19972;-82
2024/04/09 00:09:51;;;;;;;;;;;;;;;31.47;22.10;97897.78;5452374;26;21865;-82
2024/04/09 00:12:21;;;;;;;;;;;;;;;31.51;21.71;97895.53;5488643;26;19976;-82
2024/04/09 00:14:50;;;;;;;;;;;;;;;31.42;21.24;97902.03;5491280;26;20397;-82
2024/04/09 00:17:19;;;;;;;;;;;;;;;31.35;21.65;97896.75;5489242;26;20035;-82
2024/04/09 00:19:48;;;;;;;;;;;;;;;31.27;21.59;97889.91;5490165;26;20895;-82
2024/04/09 00:22:14;;;;;;;;;;;;;;;31.40;21.60;97893.25;5494943;26;19931;-82
2024/04/09 00:24:40;;;;;;;;;;;;;;;31.60;21.51;97884.09;5490008;26;20592;-82
2024/04/09 00:27:06;;;;;;;;;;;;;;;31.79;21.34;97889.03;5493410;26;19927;-82
2024/04/09 00:29:34;;;;;;;;;;;;;;;31.52;21.36;97883.69;5484105;26;20551;-82
2024/04/09 00:32:00;;;;;;;;;;;;;;;31.66;21.64;97884.94;5491802;26;20061;-82
2024/04/09 00:34:27;;;;;;;;;;;;;;;31.35;22.37;97883.38;5487537;26;19995;-82
2024/04/09 00:36:53;;;;;;;;;;;;;;;30.90;22.20;97883.78;5489685;26;19927;-82
2024/04/09 00:39:22;;;;;;;;;;;;;;;30.73;22.92;97877.78;5493670;26;19940;-82
2024/04/09 00:41:49;;;;;;;;;;;;;;;30.93;22.65;97882.81;5487260;26;19927;-82
2024/04/09 00:44:15;;;;;;;;;;;;;;;31.16;22.03;97884.03;5488335;26;20291;-82
2024/04/09 00:46:42;;;;;;;;;;;;;;;31.10;22.65;97885.97;5487480;26;19943;-82
2024/04/09 00:49:09;;;;;;;;;;;;;;;31.13;22.56;97888.63;5504041;26;19941;-82
2024/04/09 00:51:36;;;;;;;;;;;;;;;31.12;22.13;97880.59;5499627;26;20011;-82
2024/04/09 00:54:03;;;;;;;;;;;;;;;31.40;21.84;97874.16;5510762;26;19928;-82
2024/04/09 00:56:29;;;;;;;;;;;;;;;31.33;22.14;97870.94;5508036;26;19942;-82
2024/04/09 00:58:55;;;;;;;;;;;;;;;31.03;22.21;97867.28;5517146;26;20311;-82
2024/04/09 01:01:21;;;;;;;;;;;;;;;30.91;22.46;97870.38;5511939;26;19928;-81
2024/04/09 01:03:48;;;;;;;;;;;;;;;30.99;22.98;97869.53;5508238;26;19935;-82
2024/04/09 01:06:14;;;;;;;;;;;;;;;30.87;23.38;97872.63;5520831;26;19934;-82
2024/04/09 01:08:41;;;;;;;;;;;;;;;30.47;23.49;97873.88;5508384;26;19963;-82
2024/04/09 01:11:07;;;;;;;;;;;;;;;30.30;23.11;97872.69;5497870;26;19963;-82
2024/04/09 01:13:33;;;;;;;;;;;;;;;30.30;23.27;97877.56;5502922;26;19934;-82
2024/04/09 01:16:01;;;;;;;;;;;;;;;30.46;23.14;97875.13;5511728;26;20325;-82
2024/04/09 01:18:27;;;;;;;;;;;;;;;30.84;22.66;97876.41;5518180;26;19955;-82
2024/04/09 01:20:54;;;;;;;;;;;;;;;31.07;22.48;97870.72;5514651;26;20375;-82
2024/04/09 01:23:20;;;;;;;;;;;;;;;31.06;22.40;97865.53;5515334;26;19927;-82
2024/04/09 01:25:46;;;;;;;;;;;;;;;30.98;22.78;97873.63;5516993;26;19928;-82
2024/04/09 01:28:13;;;;;;;;;;;;;;;31.06;22.84;97872.00;5520190;26;19996;-82
2024/04/09 01:30:40;;;;;;;;;;;;;;;31.11;22.80;97870.53;5496249;26;19942;-82
2024/04/09 01:33:06;;;;;;;;;;;;;;;30.92;22.89;97871.97;5500154;26;19931;-82
2024/04/09 01:35:32;;;;;;;;;;;;;;;30.79;23.42;97883.53;5522429;26;19936;-82
2024/04/09 01:37:58;;;;;;;;;;;;;;;30.66;22.66;97878.13;5477689;26;20311;-82
2024/04/09 01:40:24;;;;;;;;;;;;;;;30.86;22.86;97876.69;5492076;26;19935;-82
2024/04/09 01:42:50;;;;;;;;;;;;;;;30.81;22.91;97874.56;5508338;26;19928;-82
2024/04/09 01:45:17;;;;;;;;;;;;;;;31.01;22.37;97883.22;5514625;26;19928;-82
2024/04/09 01:47:43;;;;;;;;;;;;;;;30.90;23.36;97878.09;5511034;26;20479;-82
2024/04/09 01:50:10;;;;;;;;;;;;;;;30.71;22.98;97883.13;5516762;26;19938;-82
2024/04/09 01:52:36;;;;;;;;;;;;;;;30.64;23.01;97877.06;5517969;26;20335;-82
2024/04/09 01:55:05;;;;;;;;;;;;;;;30.67;23.13;97871.19;5499047;26;19928;-82
2024/04/09 01:57:34;;;;;;;;;;;;;;;30.50;23.27;97869.28;5495476;26;20436;-82
2024/04/09 02:00:06;;;;;;;;;;;;;;;30.44;23.10;97874.03;5508899;26;19928;-82
2024/04/09 02:02:32;;;;;;;;;;;;;;;30.61;22.97;97869.50;5518192;26;19927;-82
2024/04/09 02:04:58;;;;;;;;;;;;;;;30.96;22.44;97866.88;5515993;26;20620;-82
2024/04/09 02:07:24;;;;;;;;;;;;;;;30.67;23.05;97861.88;5520927;26;19977;-82
2024/04/09 02:09:50;;;;;;;;;;;;;;;30.69;22.85;97865.06;5509706;26;19951;-82
2024/04/09 02:12:16;;;;;;;;;;;;;;;30.67;23.54;97864.72;5514486;26;19997;-82
2024/04/09 02:14:42;;;;;;;;;;;;;;;30.87;23.04;97858.44;5503830;26;20000;-82
2024/04/09 02:17:08;;;;;;;;;;;;;;;30.75;23.05;97861.06;5503455;26;20255;-82
2024/04/09 02:19:34;;;;;;;;;;;;;;;30.85;23.29;97863.81;5524264;26;20239;-82
2024/04/09 02:22:00;;;;;;;;;;;;;;;31.06;22.40;97857.81;5497912;26;19932;-82
2024/04/09 02:24:26;;;;;;;;;;;;;;;30.95;22.86;97856.84;5477868;26;19938;-82
2024/04/09 02:26:53;;;;;;;;;;;;;;;30.73;22.74;97854.31;5499322;26;19928;-81
2024/04/09 02:29:19;;;;;;;;;;;;;;;30.75;22.75;97851.75;5510275;26;19940;-82
2024/04/09 02:31:45;;;;;;;;;;;;;;;31.04;22.42;97853.91;5512165;26;19934;-82
2024/04/09 02:34:11;;;;;;;;;;;;;;;30.98;22.55;97855.84;5524565;26;19934;-82
2024/04/09 02:36:37;;;;;;;;;;;;;;;30.76;23.01;97861.81;5511985;26;19927;-82
2024/04/09 02:39:05;;;;;;;;;;;;;;;30.59;23.09;97857.88;5509069;26;20382;-82
2024/04/09 02:41:31;;;;;;;;;;;;;;;30.55;23.04;97860.13;5517975;25;19927;-82
2024/04/09 02:43:57;;;;;;;;;;;;;;;29.56;24.18;97853.69;5512117;26;19928;-82
2024/04/09 02:46:23;;;;;;;;;;;;;;;30.61;22.80;97855.34;5483315;26;19996;-82
2024/04/09 02:48:50;;;;;;;;;;;;;;;31.43;21.96;97852.56;5510385;26;19927;-82
2024/04/09 02:51:16;;;;;;;;;;;;;;;32.06;21.18;97853.88;5515775;26;20356;-82
2024/04/09 02:53:42;;;;;;;;;;;;;;;32.19;21.38;97856.34;5518655;26;19997;-82
2024/04/09 02:56:09;;;;;;;;;;;;;;;32.29;21.27;97854.97;5517581;26;19997;-82
2024/04/09 02:58:35;;;;;;;;;;;;;;;32.06;21.78;97854.66;5523293;26;19943;-82
2024/04/09 03:01:06;;;;;;;;;;;;;;;32.12;21.81;97853.94;5508242;26;19939;-82
2024/04/09 03:03:32;;;;;;;;;;;;;;;31.54;22.01;97851.97;5514778;26;19935;-82
2024/04/09 03:06:14;;;;;;;;;;;;;;;31.66;21.91;97857.34;5519806;26;19927;-82
2024/04/09 03:08:40;;;;;;;;;;;;;;;31.35;22.09;97854.19;5510158;26;20117;-82
2024/04/09 03:11:11;;;;;;;;;;;;;;;31.38;22.14;97865.38;5501734;26;19995;-82
2024/04/09 03:13:37;;;;;;;;;;;;;;;31.49;21.91;97853.44;5498530;26;19940;-82
2024/04/09 03:16:12;;;;;;;;;;;;;;;31.36;22.22;97855.78;5502505;26;19927;-82
2024/04/09 03:18:39;;;;;;;;;;;;;;;31.55;21.95;97847.88;5513530;26;19927;-82
2024/04/09 03:21:05;;;;;;;;;;;;;;;31.72;21.61;97849.69;5505385;26;19928;-82
2024/04/09 03:23:31;;;;;;;;;;;;;;;31.90;21.76;97851.53;5521964;26;19938;-82
2024/04/09 03:25:57;;;;;;;;;;;;;;;32.20;21.63;97843.72;5508043;26;19928;-82
2024/04/09 03:28:23;;;;;;;;;;;;;;;32.07;21.73;97847.69;5505640;26;19939;-82
2024/04/09 03:30:56;;;;;;;;;;;;;;;32.40;21.25;97850.22;5509740;26;20347;-82
2024/04/09 03:33:22;;;;;;;;;;;;;;;32.61;21.00;97845.31;5517285;26;20386;-82
2024/04/09 03:35:54;;;;;;;;;;;;;;;32.51;20.77;97841.84;5477006;26;19956;-82
2024/04/09 03:38:20;;;;;;;;;;;;;;;32.60;21.07;97849.47;5513817;26;19935;-82
2024/04/09 03:40:53;;;;;;;;;;;;;;;32.62;20.79;97844.84;5506946;26;19935;-82
2024/04/09 03:43:19;;;;;;;;;;;;;;;32.69;20.75;97852.16;5492971;26;19976;-82
2024/04/09 03:46:03;;;;;;;;;;;;;;;32.74;20.97;97840.84;5481243;26;20011;-82
2024/04/09 03:48:29;;;;;;;;;;;;;;;32.28;21.99;97847.72;5506441;26;20252;-82
2024/04/09 03:50:57;;;;;;;;;;;;;;;32.44;21.96;97847.16;5511399;26;20408;-82
2024/04/09 03:53:23;;;;;;;;;;;;;;;32.17;22.09;97841.88;5519276;26;20325;-82
2024/04/09 03:55:53;;;;;;;;;;;;;;;32.24;21.66;97845.09;5508980;26;19927;-82
2024/04/09 03:58:19;;;;;;;;;;;;;;;32.29;21.38;97850.06;5503140;26;20361;-82
2024/04/09 04:00:58;;;;;;;;;;;;;;;32.36;21.06;97846.00;5507788;26;19940;-82
2024/04/09 04:03:25;;;;;;;;;;;;;;;32.56;21.08;97848.88;5520672;26;20330;-82
2024/04/09 04:05:54;;;;;;;;;;;;;;;32.53;21.05;97850.69;5515476;26;19943;-82
2024/04/09 04:08:21;;;;;;;;;;;;;;;32.49;20.92;97847.25;5518711;26;19935;-82
2024/04/09 04:10:57;;;;;;;;;;;;;;;32.62;20.99;97841.22;5506930;26;19953;-82
2024/04/09 04:13:28;;;;;;;;;;;;;;;32.27;21.32;97846.94;5502063;26;19928;-82
2024/04/09 04:16:03;;;;;;;;;;;;;;;32.37;21.47;97842.66;5522193;26;19964;-82
2024/04/09 04:18:29;;;;;;;;;;;;;;;32.52;21.19;97848.31;5502392;26;19928;-81
2024/04/09 04:20:55;;;;;;;;;;;;;;;32.63;21.00;97845.59;5509503;26;19999;-82
2024/04/09 04:23:22;;;;;;;;;;;;;;;32.71;21.11;97849.59;5512566;26;19952;-82
2024/04/09 04:25:59;;;;;;;;;;;;;;;32.57;21.22;97847.63;5514134;26;19934;-82
2024/04/09 04:28:25;;;;;;;;;;;;;;;32.64;20.90;97850.03;5513345;26;19928;-81
2024/04/09 04:30:51;;;;;;;;;;;;;;;32.82;21.02;97840.41;5508857;26;19927;-81
2024/04/09 04:33:17;;;;;;;;;;;;;;;32.76;21.03;97846.03;5507976;26;19943;-82
2024/04/09 04:35:43;;;;;;;;;;;;;;;32.71;21.30;97850.38;5514048;26;20000;-82
2024/04/09 04:38:09;;;;;;;;;;;;;;;32.62;21.60;97847.69;5519589;26;20376;-82
2024/04/09 04:40:35;;;;;;;;;;;;;;;32.54;21.48;97854.28;5512118;26;20408;-82
2024/04/09 04:43:02;;;;;;;;;;;;;;;32.55;21.60;97853.81;5515908;26;20275;-83
2024/04/09 04:45:29;;;;;;;;;;;;;;;32.82;21.35;97851.78;5504713;26;22850;-82
2024/04/09 04:47:55;;;;;;;;;;;;;;;32.64;21.30;97847.19;5507306;26;19996;-83
2024/04/09 04:50:21;;;;;;;;;;;;;;;32.65;21.62;97855.22;5512337;26;19934;-83
2024/04/09 04:52:47;;;;;;;;;;;;;;;33.09;21.13;97848.50;5506672;26;19928;-83
2024/04/09 04:55:13;;;;;;;;;;;;;;;33.47;20.63;97855.88;5508078;26;20412;-82
2024/04/09 04:57:39;;;;;;;;;;;;;;;33.77;20.86;97849.41;5516185;26;19947;-83
2024/04/09 05:00:09;;;;;;;;;;;;;;;34.02;20.97;97844.94;5515212;26;20023;-82
2024/04/09 05:02:38;;;;;;;;;;;;;;;34.55;21.22;97845.03;5515757;26;19927;-81
2024/04/09 05:05:04;;;;;;;;;;;;;;;34.44;20.84;97847.81;5514224;26;19931;-80
2024/04/09 05:07:31;;;;;;;;;;;;;;;34.32;20.71;97837.63;5515162;26;20383;-81
2024/04/09 05:09:58;;;;;;;;;;;;;;;33.89;21.03;97836.00;5516114;26;19934;-83
2024/04/09 05:12:24;;;;;;;;;;;;;;;34.03;21.67;97846.50;5475374;26;19928;-82
2024/04/09 05:14:50;;;;;;;;;;;;;;;34.36;20.45;97852.41;5525575;26;19927;-83
2024/04/09 05:17:16;;;;;;;;;;;;;;;34.53;21.71;97843.97;5510504;26;19996;-83
2024/04/09 05:19:43;;;;;;;;;;;;;;;34.91;21.16;97846.19;5527616;26;19955;-83
2024/04/09 05:22:11;;;;;;;;;;;;;;;35.09;21.58;97833.56;5526445;26;19934;-83
2024/04/09 05:24:39;;;;;;;;;;;;;;;34.96;21.33;97836.09;5496180;26;19928;-82
2024/04/09 05:27:05;;;;;;;;;;;;;;;34.63;21.90;97837.56;5528444;26;20251;-82
2024/04/09 05:29:31;;;;;;;;;;;;;;;34.79;20.52;97838.13;5528784;26;20310;-83
2024/04/09 05:31:57;;;;;;;;;;;;;;;34.96;21.02;97833.25;5528119;26;20015;-82
2024/04/09 05:34:23;;;;;;;;;;;;;;;34.97;21.83;97837.63;5501414;26;20367;-82
2024/04/09 05:36:49;;;;;;;;;;;;;;;34.71;20.85;97835.75;5512855;26;19927;-83
2024/04/09 05:39:16;;;;;;;;;;;;;;;34.66;21.05;97838.56;5518007;26;19939;-83
2024/04/09 05:41:43;;;;;;;;;;;;;;;34.88;20.16;97841.50;5523292;26;19931;-83
2024/04/09 05:44:10;;;;;;;;;;;;;;;35.18;20.80;97839.00;5527001;26;20281;-83
2024/04/09 05:46:36;;;;;;;;;;;;;;;35.19;21.16;97837.72;5528241;26;19935;-83
2024/04/09 05:49:03;;;;;;;;;;;;;;;35.45;20.45;97841.16;5526262;26;20284;-83
2024/04/09 05:51:29;;;;;;;;;;;;;;;35.46;21.49;97844.75;5495631;26;20001;-82
2024/04/09 05:53:55;;;;;;;;;;;;;;;35.58;21.20;97849.22;5481117;26;20282;-82
2024/04/09 05:56:21;;;;;;;;;;;;;;;35.43;20.73;97843.72;5510005;26;19931;-82
2024/04/09 05:58:47;;;;;;;;;;;;;;;35.60;20.69;97850.25;5527593;26;19931;-82
2024/04/09 06:01:14;;;;;;;;;;;;;;;35.55;20.81;97845.31;5527468;26;19933;-82
2024/04/09 06:03:40;;;;;;;;;;;;;;;35.22;20.09;97833.81;5527863;26;19964;-82
2024/04/09 06:06:06;;;;;;;;;;;;;;;34.65;20.29;97834.97;5524071;26;20259;-82
2024/04/09 06:08:32;;;;;;;;;;;;;;;35.25;20.24;97829.94;5490854;26;19928;-82
2024/04/09 06:10:58;;;;;;;;;;;;;;;35.79;19.71;97831.28;5513740;26;19928;-82
2024/04/09 06:13:24;;;;;;;;;;;;;;;35.89;20.35;97837.53;5528352;26;19927;-82
2024/04/09 06:15:51;;;;;;;;;;;;;;;36.15;19.78;97846.63;5527914;26;19931;-82
2024/04/09 06:18:17;;;;;;;;;;;;;;;36.12;19.67;97839.06;5527901;26;19927;-82
2024/04/09 06:20:44;;;;;;;;;;;;;;;36.59;19.38;97835.06;5527457;26;20410;-82
2024/04/09 06:23:10;;;;;;;;;;;;;;;36.45;20.43;97833.31;5523898;26;19955;-83
2024/04/09 06:25:38;;;;;;;;;;;;;;;36.58;20.08;97829.84;5491357;26;19935;-82
2024/04/09 06:28:05;;;;;;;;;;;;;;;36.38;20.49;97827.31;5490732;26;19928;-82
2024/04/09 06:30:31;;;;;;;;;;;;;;;36.80;19.33;97831.84;5508418;26;19943;-82
2024/04/09 06:32:57;;;;;;;;;;;;;;;37.22;19.76;97822.78;5525269;26;19928;-82
2024/04/09 06:35:23;;;;;;;;;;;;;;;36.90;19.26;97828.13;5527845;26;19927;-82
2024/04/09 06:37:49;;;;;;;;;;;;;;;37.31;19.47;97822.44;5539330;25;19926;-82
2024/04/09 06:40:15;;;;;;;;;;;;;;;37.11;18.13;97825.72;5525770;26;19996;-83
2024/04/09 06:42:41;;;;;;;;;;;;;;;36.47;19.25;97824.19;5494794;26;20271;-82
2024/04/09 06:45:07;;;;;;;;;;;;;;;36.28;19.89;97818.25;5528028;26;19995;-82
2024/04/09 06:47:33;;;;;;;;;;;;;;;36.38;19.78;97819.50;5526836;26;19927;-82
2024/04/09 06:50:04;;;;;;;;;;;;;;;35.92;20.73;97820.09;5527199;26;19932;-82
2024/04/09 06:52:30;;;;;;;;;;;;;;;36.58;19.75;97824.13;5514734;26;20384;-82
2024/04/09 06:54:56;;;;;;;;;;;;;;;36.49;20.42;97821.56;5496585;26;19927;-83
2024/04/09 06:57:22;;;;;;;;;;;;;;;36.75;20.35;97816.25;5491503;26;20355;-82
2024/04/09 07:15:14;;;;;;;;;;;;;;;37.46;19.75;97802.81;5525293;26;19992;-83
2024/04/09 07:17:40;;;;;;;;;;;;;;;37.37;18.82;97812.53;5527164;26;20540;-83
2024/04/09 07:20:08;;;;;;;;;;;;;;;37.45;18.91;97809.88;5523774;26;19932;-83
2024/04/09 07:22:34;;;;;;;;;;;;;;;37.28;18.70;97809.97;5526669;26;20021;-83
2024/04/09 07:25:01;;;;;;;;;;;;;;;37.25;19.87;97813.13;5526771;26;19927;-83
2024/04/09 07:27:27;;;;;;;;;;;;;;;37.00;19.50;97811.47;5518638;26;20251;-82
2024/04/09 07:29:53;;;;;;;;;;;;;;;37.14;19.62;97808.25;5509934;26;20264;-83
2024/04/09 07:32:19;;;;;;;;;;;;;;;36.54;19.72;97803.59;5517791;26;20436;-82
2024/04/09 07:34:46;;;;;;;;;;;;;;;37.15;19.06;97795.50;5526796;26;19955;-83
2024/04/09 07:37:12;;;;;;;;;;;;;;;37.17;19.25;97803.53;5519431;26;19928;-83
2024/04/09 07:39:38;;;;;;;;;;;;;;;37.89;18.71;97800.91;5489908;26;19928;-83
2024/04/09 07:42:04;;;;;;;;;;;;;;;37.13;19.55;97800.94;5489247;26;19968;-83
2024/04/09 07:44:30;;;;;;;;;;;;;;;37.35;19.81;97794.28;5489772;26;19978;-83
2024/04/09 07:46:56;;;;;;;;;;;;;;;37.44;19.19;97796.84;5511107;26;19935;-83
2024/04/09 07:49:22;;;;;;;;;;;;;;;37.44;18.55;97798.97;5525437;26;19934;-83
2024/04/09 07:51:48;;;;;;;;;;;;;;;37.51;18.43;97799.13;5525484;26;19928;-83
2024/04/09 07:54:14;;;;;;;;;;;;;;;37.62;18.97;97801.94;5526307;26;20386;-83
2024/04/09 07:56:40;;;;;;;;;;;;;;;38.08;17.66;97797.31;5526066;26;19985;-83
2024/04/09 07:59:06;;;;;;;;;;;;;;;37.58;18.34;97807.16;5526277;26;19927;-83
2024/04/09 08:01:32;;;;;;;;;;;;;;;37.35;18.27;97802.88;5493554;26;19931;-83
2024/04/09 08:03:58;;;;;;;;;;;;;;;37.06;19.63;97798.66;5525742;26;19996;-83
2024/04/09 08:06:27;;;;;;;;;;;;;;;36.53;20.27;97807.75;5503062;26;19927;-83
2024/04/09 08:08:54;;;;;;;;;;;;;;;36.88;19.87;97804.19;5489285;26;20277;-83
2024/04/09 08:11:21;;;;;;;;;;;;;;;37.09;19.65;97806.19;5498522;26;19995;-83
2024/04/09 08:13:47;;;;;;;;;;;;;;;37.20;19.82;97791.78;5525820;26;19928;-83
2024/04/09 08:16:13;;;;;;;;;;;;;;;37.32;19.03;97786.75;5526401;26;19972;-83
2024/04/09 08:18:39;;;;;;;;;;;;;;;37.32;19.64;97792.47;5526169;26;20034;-83
2024/04/09 08:21:05;;;;;;;;;;;;;;;37.43;18.70;97777.34;5525405;26;19935;-83
2024/04/09 08:23:32;;;;;;;;;;;;;;;36.88;19.89;97795.63;5502252;26;19996;-83
2024/04/09 08:25:58;;;;;;;;;;;;;;;36.60;20.01;97773.66;5492259;26;19956;-83
2024/04/09 08:28:24;;;;;;;;;;;;;;;36.56;19.69;97776.03;5492550;26;19940;-83
2024/04/09 08:30:52;;;;;;;;;;;;;;;37.02;19.21;97783.84;5502784;26;19939;-83
2024/04/09 08:33:19;;;;;;;;;;;;;;;37.11;19.83;97777.81;5528043;26;19951;-83
2024/04/09 08:35:47;;;;;;;;;;;;;;;37.43;19.52;97775.25;5528432;26;19927;-83
2024/04/09 08:38:13;;;;;;;;;;;;;;;36.29;20.22;97768.34;5501562;26;19938;-83
2024/04/09 08:40:39;;;;;;;;;;;;;;;35.39;20.69;97772.59;5503226;26;20274;-83
2024/04/09 08:43:06;;;;;;;;;;;;;;;35.86;20.69;97769.97;5491796;26;19928;-82
2024/04/09 08:45:32;;;;;;;;;;;;;;;36.22;21.05;97762.38;5492288;26;19936;-83
2024/04/09 08:48:03;;;;;;;;;;;;;;;34.52;21.63;97757.63;5521705;26;20382;-83
2024/04/09 08:50:29;;;;;;;;;;;;;;;34.21;21.99;97757.75;5529285;26;20293;-83
2024/04/09 08:52:57;;;;;;;;;;;;;;;33.53;22.52;97752.16;5528594;26;19927;-83
2024/04/09 08:55:24;;;;;;;;;;;;;;;33.22;23.08;97757.81;5528671;26;19928;-83
2024/04/09 08:57:50;;;;;;;;;;;;;;;33.51;29.71;97762.47;5500136;26;19955;-83
2024/04/09 09:00:16;;;;;;;;;;;;;;;34.27;22.33;97761.41;5492166;26;19931;-83
2024/04/09 09:02:43;;;;;;;;;;;;;;;35.47;21.94;97760.66;5491863;26;19928;-83
2024/04/09 09:05:19;;;;;;;;;;;;;;;35.34;21.78;97750.53;5491859;26;20000;-83
2024/04/09 09:07:46;;;;;;;;;;;;;;;33.89;22.87;97757.03;5491734;26;19964;-84
2024/04/09 09:10:13;;;;;;;;;;;;;;;34.39;22.79;97747.97;5492064;26;20249;-83
2024/04/09 09:12:39;;;;;;;;;;;;;;;35.07;22.67;97759.88;5524058;26;19928;-83
2024/04/09 09:15:05;;;;;;;;;;;;;;;35.57;21.71;97753.41;5495826;26;19928;-83
2024/04/09 09:17:33;;;;;;;;;;;;;;;36.23;21.37;97758.19;5492289;26;19935;-83
2024/04/09 09:20:01;;;;;;;;;;;;;;;36.33;20.27;97751.66;5492003;26;20267;-83
2024/04/09 09:22:35;;;;;;;;;;;;;;;35.99;20.52;97751.00;5499528;26;20267;-83
2024/04/09 09:25:01;;;;;;;;;;;;;;;34.68;21.68;97754.06;5514890;26;19997;-83
2024/04/09 09:27:27;;;;;;;;;;;;;;;33.35;26.40;97746.81;5491997;26;19985;-83
2024/04/09 09:29:54;;;;;;;;;;;;;;;33.42;24.21;97743.50;5526581;26;19935;-83
2024/04/09 09:32:21;;;;;;;;;;;;;;;33.95;23.34;97737.91;5527598;26;19928;-83
2024/04/09 09:34:48;;;;;;;;;;;;;;;32.77;24.53;97750.16;5527845;26;19936;-83
2024/04/09 09:37:14;;;;;;;;;;;;;;;32.84;28.48;97741.91;5528301;26;20312;-83
2024/04/09 09:39:41;;;;;;;;;;;;;;;32.46;28.59;97745.13;5528688;26;19939;-83
2024/04/09 09:42:09;;;;;;;;;;;;;;;33.70;24.72;97735.94;5528152;26;19927;-83
2024/04/09 09:44:39;;;;;;;;;;;;;;;35.50;22.07;97736.78;5522598;26;19976;-83
2024/04/09 09:47:05;;;;;;;;;;;;;;;36.50;20.14;97737.31;5493249;26;19943;-83
2024/04/09 09:49:33;;;;;;;;;;;;;;;37.52;19.62;97731.16;5528504;26;19927;-83
2024/04/09 09:51:59;;;;;;;;;;;;;;;37.52;18.88;97734.81;5528613;26;19934;-83
2024/04/09 09:54:27;;;;;;;;;;;;;;;37.38;19.38;97727.38;5528208;26;19996;-83
2024/04/09 09:56:59;;;;;;;;;;;;;;;37.52;19.85;97723.34;5528285;26;19934;-83
2024/04/09 09:59:27;;;;;;;;;;;;;;;37.42;19.88;97725.00;5511168;26;19935;-83
2024/04/09 10:01:54;;;;;;;;;;;;;;;37.63;18.92;97714.63;5495996;26;20018;-83
2024/04/09 10:04:23;;;;;;;;;;;;;;;37.54;19.50;97712.13;5526519;26;20252;-83
2024/04/09 10:06:59;;;;;;;;;;;;;;;36.37;20.75;97709.25;5527367;26;19927;-83
2024/04/09 10:09:37;;;;;;;;;;;;;;;36.04;22.06;97706.56;5526475;26;19927;-83
2024/04/09 10:12:03;;;;;;;;;;;;;;;35.58;19.62;97701.47;5527366;26;19927;-84
2024/04/09 10:14:39;;;;;;;;;;;;;;;36.22;21.49;97691.69;5528225;26;19931;-83
2024/04/09 10:17:11;;;;;;;;;;;;;;;34.15;26.67;97690.59;5527465;26;19927;-83
2024/04/09 10:19:38;;;;;;;;;;;;;;;33.81;28.06;97689.66;5527509;26;19935;-84
2024/04/09 10:22:05;;;;;;;;;;;;;;;33.97;24.43;97683.28;5510622;26;20372;-84
2024/04/09 10:24:34;;;;;;;;;;;;;;;35.71;22.15;97687.41;5502107;26;19928;-83
2024/04/09 10:27:00;;;;;;;;;;;;;;;36.66;20.73;97682.09;5490687;26;19996;-84
2024/04/09 10:29:28;;;;;;;;;;;;;;;36.33;20.94;97674.47;5488961;26;19928;-83
2024/04/09 10:31:55;;;;;;;;;;;;;;;35.93;20.92;97677.97;5504882;26;19927;-83
2024/04/09 10:34:27;;;;;;;;;;;;;;;35.30;24.84;97666.44;5527567;26;19927;-83
2024/04/09 10:36:56;;;;;;;;;;;;;;;35.45;21.11;97669.00;5527084;26;19959;-83
2024/04/09 10:39:24;;;;;;;;;;;;;;;36.84;21.39;97675.72;5522505;26;19928;-83
2024/04/09 10:41:56;;;;;;;;;;;;;;;35.84;23.05;97661.91;5518651;26;19927;-83
2024/04/09 10:44:22;;;;;;;;;;;;;;;35.18;25.77;97659.19;5525919;26;19927;-83
2024/04/09 10:46:49;;;;;;;;;;;;;;;34.68;27.26;97651.38;5493669;26;20427;-84
2024/04/09 10:49:15;;;;;;;;;;;;;;;35.78;21.91;97654.69;5490412;26;19931;-83
2024/04/09 10:51:41;;;;;;;;;;;;;;;34.99;27.78;97646.69;5490719;26;19928;-83
2024/04/09 10:54:12;;;;;;;;;;;;;;;36.42;22.04;97651.25;5513953;26;19928;-83
2024/04/09 10:56:38;;;;;;;;;;;;;;;36.98;21.03;97648.81;5491552;26;19939;-83
2024/04/09 10:59:21;;;;;;;;;;;;;;;35.87;23.78;97652.28;5527541;26;19935;-83
2024/04/09 11:01:47;;;;;;;;;;;;;;;37.33;22.06;97642.25;5509327;26;19944;-84
2024/04/09 11:04:13;;;;;;;;;;;;;;;38.62;19.76;97640.16;5490434;26;19936;-83
2024/04/09 11:06:42;;;;;;;;;;;;;;;38.75;18.33;97639.47;5490463;26;19963;-84
2024/04/09 11:09:08;;;;;;;;;;;;;;;38.38;17.77;97637.41;5490494;26;19936;-83
2024/04/09 11:11:35;;;;;;;;;;;;;;;38.82;17.64;97625.25;5521299;26;19938;-83
2024/04/09 11:14:02;;;;;;;;;;;;;;;39.22;17.22;97624.06;5525227;26;20396;-84
2024/04/09 11:16:28;;;;;;;;;;;;;;;39.90;16.98;97625.13;5527327;26;19935;-83
2024/04/09 11:19:00;;;;;;;;;;;;;;;39.92;15.37;97613.84;5526866;26;19978;-84
2024/04/09 11:21:27;;;;;;;;;;;;;;;39.85;16.47;97617.38;5526363;26;19939;-84
2024/04/09 11:23:54;;;;;;;;;;;;;;;40.01;16.04;97610.53;5512503;26;19934;-84
2024/04/09 11:26:20;;;;;;;;;;;;;;;39.79;16.78;97602.34;5527322;26;19928;-83
2024/04/09 11:28:50;;;;;;;;;;;;;;;39.62;16.49;97612.63;5526247;26;19931;-83
2024/04/09 11:31:19;;;;;;;;;;;;;;;39.87;16.67;97611.84;5491593;26;19928;-84
2024/04/09 11:33:45;;;;;;;;;;;;;;;39.96;15.99;97611.38;5489782;26;19935;-84
2024/04/09 11:36:14;;;;;;;;;;;;;;;39.16;15.84;97608.25;5493182;26;19928;-83
2024/04/09 11:38:41;;;;;;;;;;;;;;;38.72;16.84;97601.94;5503896;26;20014;-84
2024/04/09 11:41:07;;;;;;;;;;;;;;;38.56;16.31;97608.69;5489891;26;19935;-83
2024/04/09 11:43:34;;;;;;;;;;;;;;;38.94;15.19;97609.41;5489418;26;19932;-83
2024/04/09 11:46:00;;;;;;;;;;;;;;;38.72;16.78;97609.00;5524044;26;19935;-83
2024/04/09 11:48:27;;;;;;;;;;;;;;;38.96;15.97;97601.00;5460070;26;19932;-84
2024/04/09 11:50:53;;;;;;;;;;;;;;;39.08;16.02;97601.59;5505600;26;19928;-84
2024/04/09 11:53:19;;;;;;;;;;;;;;;39.46;15.70;97597.25;5526571;26;19934;-84
2024/04/09 11:55:45;;;;;;;;;;;;;;;39.65;15.12;97603.69;5526154;26;19928;-83
2024/04/09 11:58:12;;;;;;;;;;;;;;;39.87;15.76;97591.72;5527142;26;19934;-84
2024/04/09 12:00:38;;;;;;;;;;;;;;;40.08;15.47;97593.91;5496829;26;20347;-83
2024/04/09 12:03:05;;;;;;;;;;;;;;;40.07;15.50;97584.53;5528699;26;19935;-84
2024/04/09 12:05:31;;;;;;;;;;;;;;;40.36;15.38;97583.31;5529830;26;19928;-84
2024/04/09 12:08:00;;;;;;;;;;;;;;;40.21;14.31;97582.38;5529976;26;19931;-84
2024/04/09 12:10:27;;;;;;;;;;;;;;;40.82;16.10;97589.56;5530009;26;20263;-84
2024/04/09 12:12:54;;;;;;;;;;;;;;;41.20;13.37;97571.28;5529633;26;20452;-84
2024/04/09 12:15:20;;;;;;;;;;;;;;;41.33;13.91;97573.34;5529055;26;20337;-84
2024/04/09 12:17:46;;;;;;;;;;;;;;;41.01;13.11;97575.75;5529571;26;19927;-84
2024/04/09 12:20:12;;;;;;;;;;;;;;;40.09;15.85;97558.06;5526108;26;19934;-84
2024/04/09 12:22:38;;;;;;;;;;;;;;;40.64;14.55;97559.66;5492498;26;20054;-83
2024/04/09 12:25:05;;;;;;;;;;;;;;;40.67;18.44;97565.06;5508795;26;19996;-84
2024/04/09 12:27:31;;;;;;;;;;;;;;;40.39;14.99;97547.69;5529510;26;19935;-84
2024/04/09 12:29:57;;;;;;;;;;;;;;;40.68;13.92;97549.31;5529903;26;19934;-84
2024/04/09 12:32:23;;;;;;;;;;;;;;;41.04;16.04;97548.69;5527215;26;20387;-84
2024/04/09 12:34:52;;;;;;;;;;;;;;;40.46;14.29;97538.38;5527172;26;19927;-84
2024/04/09 12:37:18;;;;;;;;;;;;;;;40.87;15.87;97546.25;5522436;26;20263;-84
2024/04/09 12:39:44;;;;;;;;;;;;;;;41.16;14.29;97544.97;5510980;26;19935;-84
2024/04/09 12:42:10;;;;;;;;;;;;;;;40.83;13.51;97539.28;5527406;26;19975;-84
2024/04/09 12:44:36;;;;;;;;;;;;;;;41.29;12.97;97544.88;5529586;26;19934;-84
2024/04/09 12:47:03;;;;;;;;;;;;;;;40.79;13.74;97542.53;5529306;26;19928;-84
2024/04/09 12:49:30;;;;;;;;;;;;;;;40.69;13.80;97532.81;5529378;26;19935;-84
2024/04/09 12:51:56;;;;;;;;;;;;;;;41.19;13.10;97529.44;5525065;26;19935;-84
2024/04/09 12:54:25;;;;;;;;;;;;;;;41.45;15.01;97527.69;5508956;26;20294;-84
2024/04/09 12:56:51;;;;;;;;;;;;;;;41.87;13.12;97529.06;5524868;26;19927;-84
2024/04/09 12:59:18;;;;;;;;;;;;;;;41.83;13.79;97531.53;5529152;26;20419;-84
2024/04/09 13:01:44;;;;;;;;;;;;;;;41.23;13.33;97524.06;5529105;26;19928;-84